sensor_id;sensor_type;location;lat;lon;timestamp;temperature;humidity
20380;DHT22;10349;48.666;8.948;2023-05-02T00:02:11;8.00;99.90
20380;DHT22;10349;48.666;8.948;2023-05-02T00:04:38;7.90;99.90
20380;DHT22;10349;48.666;8.948;2023-05-02T00:07:05;7.80;99.90
20380;DHT22;10349;48.666;8.948;2023-05-02T00:09:32;7.70;99.90
20380;DHT22;10349;48.666;8.948;2023-05-02T00:11:58;7.60;99.90
20380;DHT22;10349;48.666;8.948;2023-05-02T00:14:24;7.50;99.90
20380;DHT22;10349;48.666;8.948;2023-05-02T00:16:49;7.50;99.90
20380;DHT22;10349;48.666;8.948;2023-05-02T00:19:15;7.60;99.90
20380;DHT22;10349;48.666;8.948;2023-05-02T00:21:42;7.60;99.90
20380;DHT22;10349;48.666;8.948;2023-05-02T00:24:07;7.50;99.90
20380;DHT22;10349;48.666;8.948;2023-05-02T00:26:33;7.50;99.90
20380;DHT22;10349;48.666;8.948;2023-05-02T00:28:59;7.50;99.90
20380;DHT22;10349;48.666;8.948;2023-05-02T00:31:26;7.50;99.90
20380;DHT22;10349;48.666;8.948;2023-05-02T00:33:51;7.50;99.90
20380;DHT22;10349;48.666;8.948;2023-05-02T00:36:18;7.50;99.90
20380;DHT22;10349;48.666;8.948;2023-05-02T00:38:44;7.50;99.90
20380;DHT22;10349;48.666;8.948;2023-05-02T00:41:10;7.50;99.90
20380;DHT22;10349;48.666;8.948;2023-05-02T00:43:36;7.50;99.90
20380;DHT22;10349;48.666;8.948;2023-05-02T00:46:04;7.40;99.90
20380;DHT22;10349;48.666;8.948;2023-05-02T00:48:30;7.40;99.90
20380;DHT22;10349;48.666;8.948;2023-05-02T00:50:57;7.30;99.90
20380;DHT22;10349;48.666;8.948;2023-05-02T00:53:23;7.20;99.90
20380;DHT22;10349;48.666;8.948;2023-05-02T00:55:49;7.20;99.90
20380;DHT22;10349;48.666;8.948;2023-05-02T00:58:16;7.10;99.90
20380;DHT22;10349;48.666;8.948;2023-05-02T01:15:20;6.90;99.90
20380;DHT22;10349;48.666;8.948;2023-05-02T01:17:47;7.00;99.90
20380;DHT22;10349;48.666;8.948;2023-05-02T01:20:18;7.00;99.90
20380;DHT22;10349;48.666;8.948;2023-05-02T01:22:45;7.00;99.90
20380;DHT22;10349;48.666;8.948;2023-05-02T01:30:54;7.00;99.90
20380;DHT22;10349;48.666;8.948;2023-05-02T01:33:23;7.00;99.90
20380;DHT22;10349;48.666;8.948;2023-05-02T01:35:51;7.00;99.90
20380;DHT22;10349;48.666;8.948;2023-05-02T01:38:18;7.00;99.90
20380;DHT22;10349;48.666;8.948;2023-05-02T01:40:46;7.00;99.90
20380;DHT22;10349;48.666;8.948;2023-05-02T01:43:15;7.00;99.90
20380;DHT22;10349;48.666;8.948;2023-05-02T01:45:44;6.90;99.90
20380;DHT22;10349;48.666;8.948;2023-05-02T01:48:10;6.90;99.90
20380;DHT22;10349;48.666;8.948;2023-05-02T01:50:38;6.90;99.90
20380;DHT22;10349;48.666;8.948;2023-05-02T01:53:06;6.90;99.90
20380;DHT22;10349;48.666;8.948;2023-05-02T01:55:34;6.90;99.90
20380;DHT22;10349;48.666;8.948;2023-05-02T01:58:01;6.80;99.90
20380;DHT22;10349;48.666;8.948;2023-05-02T02:00:28;6.80;99.90
20380;DHT22;10349;48.666;8.948;2023-05-02T02:02:56;6.80;99.90
20380;DHT22;10349;48.666;8.948;2023-05-02T02:05:23;6.70;99.90
20380;DHT22;10349;48.666;8.948;2023-05-02T02:07:50;6.60;99.90
20380;DHT22;10349;48.666;8.948;2023-05-02T02:10:16;6.60;99.90
20380;DHT22;10349;48.666;8.948;2023-05-02T02:12:52;6.50;99.90
20380;DHT22;10349;48.666;8.948;2023-05-02T02:15:27;6.50;99.90
20380;DHT22;10349;48.666;8.948;2023-05-02T02:17:57;6.40;99.90
20380;DHT22;10349;48.666;8.948;2023-05-02T02:20:25;6.40;99.90
20380;DHT22;10349;48.666;8.948;2023-05-02T02:22:52;6.40;99.90
20380;DHT22;10349;48.666;8.948;2023-05-02T02:25:20;6.40;99.90
20380;DHT22;10349;48.666;8.948;2023-05-02T02:27:46;6.30;99.90
20380;DHT22;10349;48.666;8.948;2023-05-02T02:30:13;6.40;99.90
20380;DHT22;10349;48.666;8.948;2023-05-02T02:32:41;6.30;99.90
20380;DHT22;10349;48.666;8.948;2023-05-02T02:35:08;6.30;99.90
20380;DHT22;10349;48.666;8.948;2023-05-02T02:37:40;6.30;99.90
20380;DHT22;10349;48.666;8.948;2023-05-02T02:40:29;6.30;99.90
20380;DHT22;10349;48.666;8.948;2023-05-02T02:43:10;6.30;99.90
20380;DHT22;10349;48.666;8.948;2023-05-02T02:45:47;6.30;99.90
20380;DHT22;10349;48.666;8.948;2023-05-02T02:48:36;6.30;99.90
20380;DHT22;10349;48.666;8.948;2023-05-02T02:51:27;6.30;99.90
20380;DHT22;10349;48.666;8.948;2023-05-02T02:56:48;6.20;99.90
20380;DHT22;10349;48.666;8.948;2023-05-02T02:59:23;6.20;99.90
20380;DHT22;10349;48.666;8.948;2023-05-02T03:02:11;6.20;99.90
20380;DHT22;10349;48.666;8.948;2023-05-02T03:04:39;6.10;99.90
20380;DHT22;10349;48.666;8.948;2023-05-02T03:07:06;6.10;99.90
20380;DHT22;10349;48.666;8.948;2023-05-02T03:09:43;6.10;99.90
20380;DHT22;10349;48.666;8.948;2023-05-02T03:12:13;6.00;99.90
20380;DHT22;10349;48.666;8.948;2023-05-02T03:14:40;5.90;99.90
20380;DHT22;10349;48.666;8.948;2023-05-02T03:17:06;5.90;99.90
20380;DHT22;10349;48.666;8.948;2023-05-02T03:19:36;5.90;99.90
20380;DHT22;10349;48.666;8.948;2023-05-02T03:22:03;5.90;99.90
20380;DHT22;10349;48.666;8.948;2023-05-02T03:24:30;5.90;99.90
20380;DHT22;10349;48.666;8.948;2023-05-02T03:26:56;5.90;99.90
20380;DHT22;10349;48.666;8.948;2023-05-02T03:29:26;5.90;99.90
20380;DHT22;10349;48.666;8.948;2023-05-02T03:31:53;6.00;99.90
20380;DHT22;10349;48.666;8.948;2023-05-02T03:34:20;6.00;99.90
20380;DHT22;10349;48.666;8.948;2023-05-02T03:36:47;6.10;99.90
20380;DHT22;10349;48.666;8.948;2023-05-02T03:39:13;6.10;99.90
20380;DHT22;10349;48.666;8.948;2023-05-02T03:41:40;6.10;99.90
20380;DHT22;10349;48.666;8.948;2023-05-02T03:44:10;6.10;99.90
20380;DHT22;10349;48.666;8.948;2023-05-02T03:46:36;6.10;99.90
20380;DHT22;10349;48.666;8.948;2023-05-02T03:49:05;6.10;99.90
20380;DHT22;10349;48.666;8.948;2023-05-02T03:51:31;6.20;99.90
20380;DHT22;10349;48.666;8.948;2023-05-02T03:53:59;6.20;99.90
20380;DHT22;10349;48.666;8.948;2023-05-02T03:56:26;6.30;99.90
20380;DHT22;10349;48.666;8.948;2023-05-02T03:59:07;6.30;99.90
20380;DHT22;10349;48.666;8.948;2023-05-02T04:01:33;6.40;99.90
20380;DHT22;10349;48.666;8.948;2023-05-02T04:04:00;6.40;99.90
20380;DHT22;10349;48.666;8.948;2023-05-02T04:06:29;6.40;99.90
20380;DHT22;10349;48.666;8.948;2023-05-02T04:08:59;6.50;99.90
20380;DHT22;10349;48.666;8.948;2023-05-02T04:11:29;6.50;99.90
20380;DHT22;10349;48.666;8.948;2023-05-02T04:13:55;6.50;99.90
20380;DHT22;10349;48.666;8.948;2023-05-02T04:16:21;6.50;99.90
20380;DHT22;10349;48.666;8.948;2023-05-02T04:18:48;6.50;99.90
20380;DHT22;10349;48.666;8.948;2023-05-02T04:21:14;6.50;99.90
20380;DHT22;10349;48.666;8.948;2023-05-02T04:23:40;6.60;99.90
20380;DHT22;10349;48.666;8.948;2023-05-02T04:26:06;6.60;99.90
20380;DHT22;10349;48.666;8.948;2023-05-02T04:28:42;6.70;99.90
20380;DHT22;10349;48.666;8.948;2023-05-02T04:31:09;6.80;99.90
20380;DHT22;10349;48.666;8.948;2023-05-02T04:33:36;6.90;99.90
20380;DHT22;10349;48.666;8.948;2023-05-02T04:36:03;6.80;99.90
20380;DHT22;10349;48.666;8.948;2023-05-02T04:38:30;6.90;99.90
20380;DHT22;10349;48.666;8.948;2023-05-02T04:40:56;7.00;99.90
20380;DHT22;10349;48.666;8.948;2023-05-02T04:43:30;7.00;99.90
20380;DHT22;10349;48.666;8.948;2023-05-02T04:45:59;7.00;99.90
20380;DHT22;10349;48.666;8.948;2023-05-02T04:48:29;7.10;99.90
20380;DHT22;10349;48.666;8.948;2023-05-02T04:50:55;7.10;99.90
20380;DHT22;10349;48.666;8.948;2023-05-02T04:53:24;7.10;99.90
20380;DHT22;10349;48.666;8.948;2023-05-02T04:55:50;7.10;99.90
20380;DHT22;10349;48.666;8.948;2023-05-02T04:58:16;7.10;99.90
20380;DHT22;10349;48.666;8.948;2023-05-02T05:00:45;7.10;99.90
20380;DHT22;10349;48.666;8.948;2023-05-02T05:03:11;7.20;99.90
20380;DHT22;10349;48.666;8.948;2023-05-02T05:05:36;7.20;99.90
20380;DHT22;10349;48.666;8.948;2023-05-02T05:08:05;7.30;99.90
20380;DHT22;10349;48.666;8.948;2023-05-02T05:10:34;7.40;99.90
20380;DHT22;10349;48.666;8.948;2023-05-02T05:13:00;7.40;99.90
20380;DHT22;10349;48.666;8.948;2023-05-02T05:15:26;7.50;99.90
20380;DHT22;10349;48.666;8.948;2023-05-02T05:17:56;7.50;99.90
20380;DHT22;10349;48.666;8.948;2023-05-02T05:20:22;7.60;99.90
20380;DHT22;10349;48.666;8.948;2023-05-02T05:22:50;7.70;99.90
20380;DHT22;10349;48.666;8.948;2023-05-02T05:25:18;7.70;99.90
20380;DHT22;10349;48.666;8.948;2023-05-02T05:27:45;7.80;99.90
20380;DHT22;10349;48.666;8.948;2023-05-02T05:30:11;7.80;99.90
20380;DHT22;10349;48.666;8.948;2023-05-02T05:32:38;7.80;99.90
20380;DHT22;10349;48.666;8.948;2023-05-02T05:35:04;7.80;99.90
20380;DHT22;10349;48.666;8.948;2023-05-02T05:37:30;7.80;99.90
20380;DHT22;10349;48.666;8.948;2023-05-02T05:39:58;7.80;99.90
20380;DHT22;10349;48.666;8.948;2023-05-02T05:42:23;7.80;99.90
20380;DHT22;10349;48.666;8.948;2023-05-02T05:44:54;7.90;99.90
20380;DHT22;10349;48.666;8.948;2023-05-02T05:47:20;8.00;99.90
20380;DHT22;10349;48.666;8.948;2023-05-02T05:49:53;8.10;99.90
20380;DHT22;10349;48.666;8.948;2023-05-02T05:52:21;8.10;99.90
20380;DHT22;10349;48.666;8.948;2023-05-02T05:54:47;8.20;99.90
20380;DHT22;10349;48.666;8.948;2023-05-02T05:57:13;8.20;99.90
20380;DHT22;10349;48.666;8.948;2023-05-02T05:59:39;8.30;99.90
20380;DHT22;10349;48.666;8.948;2023-05-02T06:02:06;8.40;99.90
20380;DHT22;10349;48.666;8.948;2023-05-02T06:04:32;8.50;99.90
20380;DHT22;10349;48.666;8.948;2023-05-02T06:06:58;8.50;99.90
20380;DHT22;10349;48.666;8.948;2023-05-02T06:09:24;8.60;99.90
20380;DHT22;10349;48.666;8.948;2023-05-02T06:11:49;8.60;99.90
20380;DHT22;10349;48.666;8.948;2023-05-02T06:14:15;8.80;99.90
20380;DHT22;10349;48.666;8.948;2023-05-02T06:16:43;8.70;99.90
20380;DHT22;10349;48.666;8.948;2023-05-02T06:19:10;8.80;99.90
20380;DHT22;10349;48.666;8.948;2023-05-02T06:21:38;8.80;99.90
20380;DHT22;10349;48.666;8.948;2023-05-02T06:24:04;8.90;99.90
20380;DHT22;10349;48.666;8.948;2023-05-02T06:26:29;8.90;99.90
20380;DHT22;10349;48.666;8.948;2023-05-02T06:28:55;9.00;99.90
20380;DHT22;10349;48.666;8.948;2023-05-02T06:31:21;9.00;99.90
20380;DHT22;10349;48.666;8.948;2023-05-02T06:33:47;9.10;99.90
20380;DHT22;10349;48.666;8.948;2023-05-02T06:36:12;9.20;99.90
20380;DHT22;10349;48.666;8.948;2023-05-02T06:38:38;9.20;99.90
20380;DHT22;10349;48.666;8.948;2023-05-02T06:41:04;9.30;99.90
20380;DHT22;10349;48.666;8.948;2023-05-02T06:43:30;9.30;99.90
20380;DHT22;10349;48.666;8.948;2023-05-02T06:45:55;9.30;99.90
20380;DHT22;10349;48.666;8.948;2023-05-02T06:48:22;9.30;99.90
20380;DHT22;10349;48.666;8.948;2023-05-02T06:50:48;9.40;99.90
20380;DHT22;10349;48.666;8.948;2023-05-02T06:53:14;9.40;99.90
20380;DHT22;10349;48.666;8.948;2023-05-02T06:55:40;9.50;99.90
20380;DHT22;10349;48.666;8.948;2023-05-02T06:58:06;9.50;99.90
20380;DHT22;10349;48.666;8.948;2023-05-02T07:00:32;9.60;99.90
20380;DHT22;10349;48.666;8.948;2023-05-02T07:02:57;9.70;99.90
20380;DHT22;10349;48.666;8.948;2023-05-02T07:05:23;9.60;99.90
20380;DHT22;10349;48.666;8.948;2023-05-02T07:07:49;9.70;99.90
20380;DHT22;10349;48.666;8.948;2023-05-02T07:10:15;9.80;99.90
20380;DHT22;10349;48.666;8.948;2023-05-02T07:12:41;9.70;99.90
20380;DHT22;10349;48.666;8.948;2023-05-02T07:15:07;9.80;99.90
20380;DHT22;10349;48.666;8.948;2023-05-02T07:17:33;9.80;99.90
20380;DHT22;10349;48.666;8.948;2023-05-02T07:19:58;9.80;99.90
20380;DHT22;10349;48.666;8.948;2023-05-02T07:22:24;9.90;99.90
20380;DHT22;10349;48.666;8.948;2023-05-02T07:25:03;9.90;99.90
20380;DHT22;10349;48.666;8.948;2023-05-02T07:27:29;9.90;99.90
20380;DHT22;10349;48.666;8.948;2023-05-02T07:29:55;10.00;99.90
20380;DHT22;10349;48.666;8.948;2023-05-02T07:32:21;10.00;99.90
20380;DHT22;10349;48.666;8.948;2023-05-02T07:34:49;10.10;99.90
20380;DHT22;10349;48.666;8.948;2023-05-02T07:37:18;10.10;99.90
20380;DHT22;10349;48.666;8.948;2023-05-02T07:39:44;10.20;99.90
20380;DHT22;10349;48.666;8.948;2023-05-02T07:42:09;10.20;99.90
20380;DHT22;10349;48.666;8.948;2023-05-02T07:44:35;10.20;99.90
20380;DHT22;10349;48.666;8.948;2023-05-02T07:47:01;10.20;99.90
20380;DHT22;10349;48.666;8.948;2023-05-02T07:49:27;10.30;99.90
20380;DHT22;10349;48.666;8.948;2023-05-02T07:51:52;10.40;99.90
20380;DHT22;10349;48.666;8.948;2023-05-02T07:54:19;10.40;99.90
20380;DHT22;10349;48.666;8.948;2023-05-02T07:56:46;10.60;99.90
20380;DHT22;10349;48.666;8.948;2023-05-02T07:59:12;10.70;99.90
20380;DHT22;10349;48.666;8.948;2023-05-02T08:01:38;10.80;99.90
20380;DHT22;10349;48.666;8.948;2023-05-02T08:04:04;10.80;99.90
20380;DHT22;10349;48.666;8.948;2023-05-02T08:06:30;10.80;99.90
20380;DHT22;10349;48.666;8.948;2023-05-02T08:08:57;10.80;99.90
20380;DHT22;10349;48.666;8.948;2023-05-02T08:11:23;10.90;99.90
20380;DHT22;10349;48.666;8.948;2023-05-02T08:13:51;10.90;99.90
20380;DHT22;10349;48.666;8.948;2023-05-02T08:16:18;11.00;99.90
20380;DHT22;10349;48.666;8.948;2023-05-02T08:18:43;11.10;99.90
20380;DHT22;10349;48.666;8.948;2023-05-02T08:21:09;11.10;99.90
20380;DHT22;10349;48.666;8.948;2023-05-02T08:23:35;11.10;99.90
20380;DHT22;10349;48.666;8.948;2023-05-02T08:26:04;11.20;99.90
20380;DHT22;10349;48.666;8.948;2023-05-02T08:28:30;11.30;99.90
20380;DHT22;10349;48.666;8.948;2023-05-02T08:30:56;11.40;99.90
20380;DHT22;10349;48.666;8.948;2023-05-02T08:33:22;11.50;99.90
20380;DHT22;10349;48.666;8.948;2023-05-02T08:35:48;11.60;99.90
20380;DHT22;10349;48.666;8.948;2023-05-02T08:38:13;11.70;99.90
20380;DHT22;10349;48.666;8.948;2023-05-02T08:40:39;11.80;99.90
20380;DHT22;10349;48.666;8.948;2023-05-02T08:43:05;11.70;99.90
20380;DHT22;10349;48.666;8.948;2023-05-02T08:45:38;11.70;99.90
20380;DHT22;10349;48.666;8.948;2023-05-02T08:48:06;11.70;99.90
20380;DHT22;10349;48.666;8.948;2023-05-02T08:50:39;11.70;99.90
20380;DHT22;10349;48.666;8.948;2023-05-02T08:53:07;11.70;99.90
20380;DHT22;10349;48.666;8.948;2023-05-02T08:55:36;11.80;99.90
20380;DHT22;10349;48.666;8.948;2023-05-02T08:58:04;11.90;99.90
20380;DHT22;10349;48.666;8.948;2023-05-02T09:00:31;12.00;99.90
20380;DHT22;10349;48.666;8.948;2023-05-02T09:05:23;12.40;99.90
20380;DHT22;10349;48.666;8.948;2023-05-02T09:07:50;12.70;99.90
20380;DHT22;10349;48.666;8.948;2023-05-02T09:10:16;12.70;99.90
20380;DHT22;10349;48.666;8.948;2023-05-02T09:12:42;12.80;99.90
20380;DHT22;10349;48.666;8.948;2023-05-02T09:15:13;12.90;99.90
20380;DHT22;10349;48.666;8.948;2023-05-02T09:17:44;12.90;99.90
20380;DHT22;10349;48.666;8.948;2023-05-02T09:20:14;13.00;99.90
20380;DHT22;10349;48.666;8.948;2023-05-02T09:22:50;13.00;99.90
20380;DHT22;10349;48.666;8.948;2023-05-02T09:25:18;13.10;99.90
20380;DHT22;10349;48.666;8.948;2023-05-02T09:28:03;13.10;99.90
20380;DHT22;10349;48.666;8.948;2023-05-02T09:30:29;13.30;99.90
20380;DHT22;10349;48.666;8.948;2023-05-02T09:32:54;13.40;99.90
20380;DHT22;10349;48.666;8.948;2023-05-02T09:35:20;13.40;99.90
20380;DHT22;10349;48.666;8.948;2023-05-02T09:37:58;13.30;99.90
20380;DHT22;10349;48.666;8.948;2023-05-02T09:40:24;13.40;99.90
20380;DHT22;10349;48.666;8.948;2023-05-02T09:42:51;13.50;99.90
20380;DHT22;10349;48.666;8.948;2023-05-02T09:45:19;13.50;99.90
20380;DHT22;10349;48.666;8.948;2023-05-02T09:47:46;13.70;99.90
20380;DHT22;10349;48.666;8.948;2023-05-02T09:50:34;13.90;99.90
20380;DHT22;10349;48.666;8.948;2023-05-02T09:53:08;14.00;99.90
20380;DHT22;10349;48.666;8.948;2023-05-02T09:55:35;13.90;99.90
20380;DHT22;10349;48.666;8.948;2023-05-02T09:58:01;14.00;99.90
20380;DHT22;10349;48.666;8.948;2023-05-02T10:00:41;14.20;99.90
20380;DHT22;10349;48.666;8.948;2023-05-02T10:03:07;14.50;99.90
20380;DHT22;10349;48.666;8.948;2023-05-02T10:05:36;14.60;99.90
20380;DHT22;10349;48.666;8.948;2023-05-02T10:08:07;14.70;99.90
20380;DHT22;10349;48.666;8.948;2023-05-02T10:10:38;14.60;99.90
20380;DHT22;10349;48.666;8.948;2023-05-02T10:13:05;14.70;99.90
20380;DHT22;10349;48.666;8.948;2023-05-02T10:15:31;14.80;99.90
20380;DHT22;10349;48.666;8.948;2023-05-02T10:17:59;14.90;99.90
20380;DHT22;10349;48.666;8.948;2023-05-02T10:20:31;14.90;99.90
20380;DHT22;10349;48.666;8.948;2023-05-02T10:22:59;15.00;99.90
20380;DHT22;10349;48.666;8.948;2023-05-02T10:25:27;15.10;99.90
20380;DHT22;10349;48.666;8.948;2023-05-02T10:27:55;14.50;99.90
20380;DHT22;10349;48.666;8.948;2023-05-02T10:30:23;14.50;99.90
20380;DHT22;10349;48.666;8.948;2023-05-02T10:32:50;14.40;99.90
20380;DHT22;10349;48.666;8.948;2023-05-02T10:35:17;14.30;99.90
20380;DHT22;10349;48.666;8.948;2023-05-02T10:37:43;14.30;99.90
20380;DHT22;10349;48.666;8.948;2023-05-02T10:40:10;14.40;99.90
20380;DHT22;10349;48.666;8.948;2023-05-02T10:42:38;14.60;99.90
20380;DHT22;10349;48.666;8.948;2023-05-02T10:45:09;14.90;99.90
20380;DHT22;10349;48.666;8.948;2023-05-02T10:47:36;14.90;99.90
20380;DHT22;10349;48.666;8.948;2023-05-02T10:50:02;15.20;99.90
20380;DHT22;10349;48.666;8.948;2023-05-02T10:52:31;15.20;99.90
20380;DHT22;10349;48.666;8.948;2023-05-02T10:55:17;15.30;99.90
20380;DHT22;10349;48.666;8.948;2023-05-02T11:00:29;15.70;99.90
20380;DHT22;10349;48.666;8.948;2023-05-02T11:02:55;15.70;99.90
20380;DHT22;10349;48.666;8.948;2023-05-02T11:05:22;15.70;99.90
20380;DHT22;10349;48.666;8.948;2023-05-02T11:07:49;15.80;99.90
20380;DHT22;10349;48.666;8.948;2023-05-02T11:12:46;16.00;99.90
20380;DHT22;10349;48.666;8.948;2023-05-02T11:18:06;16.40;99.90
20380;DHT22;10349;48.666;8.948;2023-05-02T11:23:24;16.40;99.90
20380;DHT22;10349;48.666;8.948;2023-05-02T11:25:56;16.60;99.90
20380;DHT22;10349;48.666;8.948;2023-05-02T11:31:07;16.60;99.90
20380;DHT22;10349;48.666;8.948;2023-05-02T11:33:32;16.80;99.90
20380;DHT22;10349;48.666;8.948;2023-05-02T11:35:58;16.70;99.90
20380;DHT22;10349;48.666;8.948;2023-05-02T11:38:26;16.60;99.90
20380;DHT22;10349;48.666;8.948;2023-05-02T11:40:59;16.50;99.90
20380;DHT22;10349;48.666;8.948;2023-05-02T11:43:26;16.50;99.90
20380;DHT22;10349;48.666;8.948;2023-05-02T11:45:54;16.40;99.90
20380;DHT22;10349;48.666;8.948;2023-05-02T11:48:22;16.20;99.90
20380;DHT22;10349;48.666;8.948;2023-05-02T11:50:56;16.50;99.90
20380;DHT22;10349;48.666;8.948;2023-05-02T11:53:24;16.60;99.90
20380;DHT22;10349;48.666;8.948;2023-05-02T11:55:52;16.90;99.90
20380;DHT22;10349;48.666;8.948;2023-05-02T11:58:23;16.90;99.90
20380;DHT22;10349;48.666;8.948;2023-05-02T12:00:50;16.90;99.90
20380;DHT22;10349;48.666;8.948;2023-05-02T12:03:30;16.80;99.90
20380;DHT22;10349;48.666;8.948;2023-05-02T12:06:11;16.60;99.90
20380;DHT22;10349;48.666;8.948;2023-05-02T12:08:37;16.70;99.90
20380;DHT22;10349;48.666;8.948;2023-05-02T12:11:03;16.70;99.90
20380;DHT22;10349;48.666;8.948;2023-05-02T12:13:29;16.70;99.90
20380;DHT22;10349;48.666;8.948;2023-05-02T12:15:55;16.70;99.90
20380;DHT22;10349;48.666;8.948;2023-05-02T12:18:23;16.90;99.90
20380;DHT22;10349;48.666;8.948;2023-05-02T12:20:55;17.20;99.90
20380;DHT22;10349;48.666;8.948;2023-05-02T12:23:23;17.40;99.90
20380;DHT22;10349;48.666;8.948;2023-05-02T12:25:52;17.20;99.90
20380;DHT22;10349;48.666;8.948;2023-05-02T12:28:20;17.10;99.90
20380;DHT22;10349;48.666;8.948;2023-05-02T12:30:49;17.10;99.90
20380;DHT22;10349;48.666;8.948;2023-05-02T12:33:16;16.80;99.90
20380;DHT22;10349;48.666;8.948;2023-05-02T12:35:42;17.00;99.90
20380;DHT22;10349;48.666;8.948;2023-05-02T12:38:11;17.00;99.90
20380;DHT22;10349;48.666;8.948;2023-05-02T12:40:37;16.90;99.90
20380;DHT22;10349;48.666;8.948;2023-05-02T12:43:04;17.00;99.90
20380;DHT22;10349;48.666;8.948;2023-05-02T12:45:33;17.10;99.90
20380;DHT22;10349;48.666;8.948;2023-05-02T12:48:00;16.90;99.90
20380;DHT22;10349;48.666;8.948;2023-05-02T12:50:38;17.00;99.90
20380;DHT22;10349;48.666;8.948;2023-05-02T12:53:04;17.30;99.90
20380;DHT22;10349;48.666;8.948;2023-05-02T12:55:30;17.50;99.90
20380;DHT22;10349;48.666;8.948;2023-05-02T12:58:00;17.50;99.90
20380;DHT22;10349;48.666;8.948;2023-05-02T13:00:26;17.50;99.90
20380;DHT22;10349;48.666;8.948;2023-05-02T13:02:52;17.40;99.90
20380;DHT22;10349;48.666;8.948;2023-05-02T13:05:18;17.60;99.90
20380;DHT22;10349;48.666;8.948;2023-05-02T13:07:44;17.60;99.90
20380;DHT22;10349;48.666;8.948;2023-05-02T13:10:10;17.80;99.90
20380;DHT22;10349;48.666;8.948;2023-05-02T13:12:36;18.00;99.90
20380;DHT22;10349;48.666;8.948;2023-05-02T13:15:03;18.10;99.90
20380;DHT22;10349;48.666;8.948;2023-05-02T13:17:29;18.00;99.90
20380;DHT22;10349;48.666;8.948;2023-05-02T13:19:55;17.90;99.90
20380;DHT22;10349;48.666;8.948;2023-05-02T13:22:21;17.70;99.90
20380;DHT22;10349;48.666;8.948;2023-05-02T13:24:46;17.20;99.90
20380;DHT22;10349;48.666;8.948;2023-05-02T13:27:12;17.00;99.90
20380;DHT22;10349;48.666;8.948;2023-05-02T13:29:38;17.00;99.90
20380;DHT22;10349;48.666;8.948;2023-05-02T13:32:03;16.90;99.90
20380;DHT22;10349;48.666;8.948;2023-05-02T13:34:29;17.00;99.90
20380;DHT22;10349;48.666;8.948;2023-05-02T13:36:55;17.00;99.90
20380;DHT22;10349;48.666;8.948;2023-05-02T13:39:21;17.10;99.90
20380;DHT22;10349;48.666;8.948;2023-05-02T13:41:46;17.40;99.90
20380;DHT22;10349;48.666;8.948;2023-05-02T13:44:12;17.60;99.90
20380;DHT22;10349;48.666;8.948;2023-05-02T13:46:38;17.80;99.90
20380;DHT22;10349;48.666;8.948;2023-05-02T13:49:04;17.90;99.90
20380;DHT22;10349;48.666;8.948;2023-05-02T13:51:33;18.00;99.90
20380;DHT22;10349;48.666;8.948;2023-05-02T13:53:59;18.30;99.90
20380;DHT22;10349;48.666;8.948;2023-05-02T13:56:24;18.20;99.90
20380;DHT22;10349;48.666;8.948;2023-05-02T13:58:50;18.20;99.90
20380;DHT22;10349;48.666;8.948;2023-05-02T14:01:16;18.50;99.90
20380;DHT22;10349;48.666;8.948;2023-05-02T14:03:41;18.50;99.90
20380;DHT22;10349;48.666;8.948;2023-05-02T14:06:08;18.50;99.90
20380;DHT22;10349;48.666;8.948;2023-05-02T14:08:33;18.60;99.90
20380;DHT22;10349;48.666;8.948;2023-05-02T14:10:59;18.80;99.90
20380;DHT22;10349;48.666;8.948;2023-05-02T14:13:25;18.80;99.90
20380;DHT22;10349;48.666;8.948;2023-05-02T14:15:51;18.40;99.90
20380;DHT22;10349;48.666;8.948;2023-05-02T14:18:17;18.20;99.90
20380;DHT22;10349;48.666;8.948;2023-05-02T14:20:43;18.20;99.90
20380;DHT22;10349;48.666;8.948;2023-05-02T14:23:08;18.30;99.90
20380;DHT22;10349;48.666;8.948;2023-05-02T14:25:37;18.60;99.90
20380;DHT22;10349;48.666;8.948;2023-05-02T14:28:03;19.00;99.90
20380;DHT22;10349;48.666;8.948;2023-05-02T14:30:29;18.70;99.90
20380;DHT22;10349;48.666;8.948;2023-05-02T14:32:56;18.60;99.90
20380;DHT22;10349;48.666;8.948;2023-05-02T14:35:22;18.60;99.90
20380;DHT22;10349;48.666;8.948;2023-05-02T14:37:48;18.30;99.90
20380;DHT22;10349;48.666;8.948;2023-05-02T14:40:14;18.40;99.90
20380;DHT22;10349;48.666;8.948;2023-05-02T14:46:37;19.00;99.90
20380;DHT22;10349;48.666;8.948;2023-05-02T14:49:03;18.90;99.90
20380;DHT22;10349;48.666;8.948;2023-05-02T14:51:28;19.00;99.90
20380;DHT22;10349;48.666;8.948;2023-05-02T14:53:54;19.00;99.90
20380;DHT22;10349;48.666;8.948;2023-05-02T14:56:19;19.00;99.90
20380;DHT22;10349;48.666;8.948;2023-05-02T14:58:46;19.20;99.90
20380;DHT22;10349;48.666;8.948;2023-05-02T15:01:18;19.30;99.90
20380;DHT22;10349;48.666;8.948;2023-05-02T15:03:44;19.00;99.90
20380;DHT22;10349;48.666;8.948;2023-05-02T15:06:11;18.90;99.90
20380;DHT22;10349;48.666;8.948;2023-05-02T15:08:37;19.00;99.90
20380;DHT22;10349;48.666;8.948;2023-05-02T15:11:02;19.10;99.90
20380;DHT22;10349;48.666;8.948;2023-05-02T15:13:28;19.20;99.90
20380;DHT22;10349;48.666;8.948;2023-05-02T15:15:53;19.30;99.90
20380;DHT22;10349;48.666;8.948;2023-05-02T15:18:20;19.10;99.90
20380;DHT22;10349;48.666;8.948;2023-05-02T15:20:46;19.30;99.90
20380;DHT22;10349;48.666;8.948;2023-05-02T15:23:12;19.30;99.90
20380;DHT22;10349;48.666;8.948;2023-05-02T15:25:37;19.30;99.90
20380;DHT22;10349;48.666;8.948;2023-05-02T15:28:03;19.50;99.90
20380;DHT22;10349;48.666;8.948;2023-05-02T15:30:29;19.30;99.90
20380;DHT22;10349;48.666;8.948;2023-05-02T15:32:54;18.60;99.90
20380;DHT22;10349;48.666;8.948;2023-05-02T15:35:20;18.50;99.90
20380;DHT22;10349;48.666;8.948;2023-05-02T15:37:45;18.50;99.90
20380;DHT22;10349;48.666;8.948;2023-05-02T15:40:11;18.50;99.90
20380;DHT22;10349;48.666;8.948;2023-05-02T15:42:38;18.50;99.90
20380;DHT22;10349;48.666;8.948;2023-05-02T15:45:05;18.60;99.90
20380;DHT22;10349;48.666;8.948;2023-05-02T15:47:33;18.50;99.90
20380;DHT22;10349;48.666;8.948;2023-05-02T15:50:02;18.20;99.90
20380;DHT22;10349;48.666;8.948;2023-05-02T15:52:29;18.30;99.90
20380;DHT22;10349;48.666;8.948;2023-05-02T15:54:55;18.10;99.90
20380;DHT22;10349;48.666;8.948;2023-05-02T15:57:21;17.70;99.90
20380;DHT22;10349;48.666;8.948;2023-05-02T15:59:47;17.50;99.90
20380;DHT22;10349;48.666;8.948;2023-05-02T16:02:13;17.60;99.90
20380;DHT22;10349;48.666;8.948;2023-05-02T16:04:38;17.80;99.90
20380;DHT22;10349;48.666;8.948;2023-05-02T16:07:04;17.80;99.90
20380;DHT22;10349;48.666;8.948;2023-05-02T16:09:29;17.60;99.90
20380;DHT22;10349;48.666;8.948;2023-05-02T16:11:56;17.60;99.90
20380;DHT22;10349;48.666;8.948;2023-05-02T16:14:22;17.70;99.90
20380;DHT22;10349;48.666;8.948;2023-05-02T16:16:49;17.60;99.90
20380;DHT22;10349;48.666;8.948;2023-05-02T16:19:14;17.90;99.90
20380;DHT22;10349;48.666;8.948;2023-05-02T16:21:41;17.80;99.90
20380;DHT22;10349;48.666;8.948;2023-05-02T16:24:08;18.10;99.90